MZBZ/BZE METAR and TAF weather

Enter ICAO airport designator
Station Type Date Time Source
MZBZ METAR 2021/10/20 00:00 UTC NOAA

MZBZ 200000Z 02004KT 9999 FEW008 BKN014 26/26 A2991 Q1013 NOSIG RMK DIST SHWR-N/NE


Station Type Date Time Source
MZBZ Decoded METAR 2021/10/20 00:00 UTC NOAA

Belize / Phillip Goldston Intl. Airport, Belize (MZBZ) 17-32N 088-18W 5M
Oct 19, 2021 - 08:00 PM EDT / 2021.10.20 0000 UTC
Wind: from the NNE (020 degrees) at 5 MPH (4 KT):0
Visibility: greater than 7 mile(s):0
Sky conditions: mostly cloudy
Temperature: 78 F (26 C)
Dew Point: 78 F (26 C)
Relative Humidity: 100%
Pressure (altimeter): 29.91 in. Hg (1012 hPa)
ob: MZBZ 200000Z 02004KT 9999 FEW008 BKN014 26/26 A2991 Q1013 NOSIG RMK DIST SHWR-N/NE
cycle: 0

Station Type Date Time Source
MZBZ TAF 2021/10/20 06:59 UTC NOAA

TAF MZBZ 200250Z 2006/2106 08005KT 9999 SCT018 SCT045 PROB30
TEMPO 2006/2015 3000 TSRA SCT010CB BKN035 PROB40
TEMPO 2010/2020 4000 SHRA BKN014

Example: see airport list